Latest Weather Observations for Brisbane Airport

IDQ60801

Issued at 7:32 pm EST Monday 23 October 2017 (issued every 30 minutes, with the page automatically refreshed every 10 minutes)

About weather observations | Map of weather stations | Latest weather observations for QLD | Other Formats
Station Details ID: 040842 Name: BRISBANE AERO Lat: -27.39 Lon: 153.13 Height: 4.51 m
Data from the previous 72 hours. | See also: Recent months at Brisbane Airport
Date/Time
EST
Temp
°C
App
Temp
°C
Dew
Point
°C
Rel
Hum
%
Delta-T
°C
Wind Press
QNH
hPa
Press
MSL
hPa
Rain since
9am
mm
Dir  Spd
km/h
Gust
km/h
Spd
kts
Gust
kts
23/07:00pm 17.8 16.1 12.6 71 2.9 WSW 13 19 7 10 1018.2 1018.1 0.0
23/06:30pm 17.8 16.6 12.8 72 2.8 W 11 15 6 8 1017.4 1017.4 0.0
23/06:00pm 19.1 19.6 15.0 77 2.4 NE 6 9 3 5 1016.6 1016.6 0.0
23/05:30pm 20.3 20.7 15.2 72 3.0 NE 7 13 4 7 1016.2 1016.2 0.0
23/05:00pm 19.7 19.0 14.3 71 3.1 E 11 15 6 8 1015.2 1015.2 0.0
23/04:46pm 19.6 18.6 13.5 68 3.5 E 11 15 6 8 1015.4 1015.4 0.0
23/04:30pm 19.4 18.5 13.6 69 3.3 NNW 11 17 6 9 1015.4 1015.4 0.0
23/04:00pm 19.3 15.7 11.9 62 4.1 NW 22 32 12 17 1015.8 1015.8 0.0
23/03:30pm 20.7 22.4 15.1 70 3.3 CALM 0 0 0 0 1015.8 1015.8 0.0
23/03:00pm 20.5 20.1 14.1 66 3.7 ENE 9 13 5 7 1015.2 1015.2 0.0
23/02:30pm 20.9 20.2 13.2 61 4.4 ESE 9 17 5 9 1015.2 1015.2 0.0
23/02:00pm 20.9 19.9 13.4 62 4.3 ESE 11 19 6 10 1015.0 1015.0 0.0
23/01:30pm 22.0 20.5 14.3 61 4.5 ESE 15 20 8 11 1015.0 1015.0 0.0
23/01:00pm 21.7 20.5 14.1 62 4.4 ESE 13 17 7 9 1015.0 1015.0 0.0
23/12:30pm 20.9 19.9 13.4 62 4.3 E 11 19 6 10 1015.5 1015.5 0.0
23/12:00pm 21.5 21.1 15.3 68 3.7 E 11 17 6 9 1015.0 1015.0 0.0
23/11:30am 19.4 21.1 15.3 77 2.4 CALM 0 6 0 3 1015.8 1015.8 0.0
23/11:00am 17.7 17.3 14.0 79 2.1 ENE 9 13 5 7 1016.6 1016.6 0.0
23/10:30am 17.6 16.1 11.9 69 3.1 S 11 22 6 12 1016.7 1016.7 0.0
23/10:00am 19.0 18.2 11.1 60 4.3 NNE 6 19 3 10 1016.7 1016.7 0.0
23/09:30am 21.8 22.0 14.1 61 4.5 N 6 13 3 7 1016.4 1016.4 0.0
23/09:00am 20.7 20.5 14.7 68 3.5 SSE 9 17 5 9 1016.3 1016.3 6.6
23/08:30am 20.4 21.0 15.3 72 3.0 SSW 6 11 3 6 1016.2 1016.2 6.6
23/08:00am 19.7 19.8 15.5 77 2.5 SSW 9 11 5 6 1015.8 1015.8 6.6
23/07:30am 18.8 18.4 16.1 84 1.6 SSW 13 15 7 8 1015.8 1015.8 6.6
23/07:00am 16.8 15.7 15.3 91 0.9 SW 15 17 8 9 1015.3 1015.3 6.6
23/06:30am 15.7 15.1 14.5 93 0.7 SSW 11 17 6 9 1014.9 1014.9 6.6
23/06:00am 15.8 15.3 14.8 94 0.6 NW 11 17 6 9 1014.8 1014.8 6.6
23/05:30am 15.8 14.5 14.8 94 0.6 N 15 19 8 10 1013.9 1013.9 6.6
23/05:22am 15.4 14.4 14.5 94 0.5 N 13 15 7 8 1013.9 1013.9 6.2
23/05:11am 15.3 13.4 14.1 92 0.7 W 17 26 9 14 1014.0 1014.0 5.4
23/05:06am 15.6 13.0 13.8 89 1.0 WSW 20 32 11 17 1014.3 1014.3 1.2
23/05:00am 16.1 12.7 13.6 85 1.4 WSW 24 37 13 20 1014.3 1014.3 0.8
23/04:39am 16.4 15.9 14.8 90 0.9 SW 11 15 6 8 1014.0 1014.0 0.8
23/04:30am 16.5 15.7 15.1 91 0.8 SW 13 15 7 8 1013.8 1013.8 0.8
23/04:00am 16.7 16.9 14.8 88 1.1 SSW 7 9 4 5 1013.5 1013.5 0.2
23/03:30am 16.5 16.5 14.2 86 1.3 SSW 7 9 4 5 1013.3 1013.3 0.0
23/03:00am 16.7 16.4 14.4 86 1.3 WSW 9 11 5 6 1013.2 1013.2 0.0
23/02:30am 16.5 16.1 14.2 86 1.3 W 9 11 5 6 1013.3 1013.3 0.0
23/02:00am 17.2 17.1 13.9 81 1.9 S 7 7 4 4 1013.2 1013.2 0.0
23/01:30am 17.5 17.4 14.0 80 2.0 WSW 7 11 4 6 1013.8 1013.8 0.0
23/01:00am 16.9 17.0 13.9 82 1.7 WSW 6 13 3 7 1014.0 1014.0 0.0
23/12:00am 17.5 17.0 13.8 79 2.1 S 9 11 5 6 1014.1 1014.1 0.0
 
Date/Time
EST
Temp
°C
App
Temp
°C
Dew
Point
°C
Rel
Hum
%
Delta-T
°C
Wind Press
QNH
hPa
Press
MSL
hPa
Rain since
9am
mm
Dir  Spd
km/h
Gust
km/h
Spd
kts
Gust
kts
22/11:30pm 17.8 17.3 13.9 78 2.2 S 9 11 5 6 1014.4 1014.4 0.0
22/11:00pm 18.2 18.0 14.6 79 2.1 S 9 13 5 7 1014.5 1014.5 0.0
22/10:30pm 19.3 19.9 15.9 81 2.0 E 7 9 4 5 1014.4 1014.4 0.0
22/10:00pm 19.7 20.2 15.5 77 2.5 ENE 7 11 4 6 1014.4 1014.4 0.0
22/09:30pm 19.7 19.7 15.3 76 2.6 ENE 9 11 5 6 1014.4 1014.4 0.0
22/09:00pm 19.7 19.7 15.3 76 2.6 ENE 9 13 5 7 1014.3 1014.3 0.0
22/08:30pm 19.6 19.7 15.4 77 2.5 ENE 9 13 5 7 1014.1 1014.1 0.0
22/08:00pm 19.6 19.7 15.4 77 2.5 ENE 9 13 5 7 1013.8 1013.8 0.0
22/07:30pm 20.0 19.9 14.9 72 3.0 E 9 15 5 8 1013.3 1013.3 0.0
22/07:00pm 20.2 18.7 13.0 63 4.1 E 13 19 7 10 1012.9 1012.9 0.0
22/06:30pm 20.4 18.9 13.2 63 4.1 ESE 13 22 7 12 1012.5 1012.5 0.0
22/06:00pm 20.6 18.8 13.4 63 4.1 ESE 15 24 8 13 1012.0 1012.0 0.0
22/05:30pm 20.9 19.0 13.0 60 4.5 ESE 15 26 8 14 1011.6 1011.6 0.0
22/05:00pm 21.4 19.1 13.0 58 4.8 ESE 17 28 9 15 1011.4 1011.4 0.0
22/04:30pm 22.0 20.1 13.1 57 5.1 ESE 15 26 8 14 1011.1 1011.1 0.0
22/04:00pm 22.2 20.1 12.3 53 5.6 E 15 22 8 12 1011.0 1011.0 0.0
22/03:30pm 22.8 20.8 13.9 57 5.2 E 17 26 9 14 1010.7 1010.7 0.0
22/03:00pm 22.7 20.5 13.4 55 5.4 E 17 24 9 13 1010.7 1010.7 0.0
22/02:30pm 22.7 20.1 11.9 50 6.1 ENE 17 24 9 13 1010.9 1010.9 0.0
22/02:00pm 22.8 20.4 12.7 53 5.8 ENE 17 24 9 13 1010.9 1010.9 0.0
22/01:30pm 23.2 20.6 12.1 49 6.3 NE 17 22 9 12 1011.2 1011.2 0.0
22/01:00pm 22.6 20.5 12.4 52 5.8 NE 15 20 8 11 1011.4 1011.4 0.0
22/12:30pm 22.6 19.7 12.4 52 5.8 NNE 19 28 10 15 1011.8 1011.8 0.0
22/12:00pm 22.7 21.6 11.9 50 6.1 NNE 9 22 5 12 1012.3 1012.3 0.0
22/11:30am 22.2 21.8 12.9 55 5.3 ESE 7 11 4 6 1012.4 1012.4 0.0
22/11:00am 22.4 20.4 10.3 46 6.6 ESE 11 17 6 9 1012.5 1012.5 0.0
22/10:30am 22.4 20.5 11.7 50 6.0 SSE 13 19 7 10 1012.7 1012.7 0.0
22/10:00am 21.5 19.5 11.4 52 5.6 SSW 13 24 7 13 1013.1 1013.1 0.0
22/09:30am 20.8 18.1 11.8 56 5.0 SSW 17 20 9 11 1013.4 1013.4 0.0
22/09:00am 20.1 17.2 12.2 60 4.4 SW 19 26 10 14 1013.7 1013.7 12.2
22/08:30am 18.9 15.2 11.6 62 4.0 SW 22 30 12 16 1013.9 1013.9 12.2
22/08:00am 18.3 14.2 11.5 64 3.7 SSW 24 32 13 17 1013.8 1013.8 12.2
22/07:30am 17.2 12.6 10.9 66 3.4 SSW 26 33 14 18 1013.7 1013.7 12.2
22/07:00am 16.9 13.5 11.1 68 3.1 SSW 20 30 11 16 1013.5 1013.5 12.2
22/06:30am 16.1 12.7 11.1 72 2.7 SSW 20 28 11 15 1013.1 1013.1 12.2
22/06:00am 14.9 12.5 11.3 79 1.9 SSW 15 17 8 9 1012.9 1012.9 12.2
22/05:30am 13.6 11.1 11.1 85 1.3 SSW 15 19 8 10 1012.7 1012.7 12.2
22/05:00am 13.0 10.1 11.1 88 1.0 SW 17 20 9 11 1012.7 1012.7 12.2
22/04:30am 13.0 11.4 11.5 91 0.8 SSW 11 15 6 8 1012.6 1012.6 12.2
22/04:00am 13.8 12.5 11.4 85 1.3 SSW 9 13 5 7 1012.4 1012.4 12.2
22/03:30am 12.7 11.2 11.8 94 0.5 SW 11 13 6 7 1012.4 1012.4 12.2
22/03:00am 12.7 10.4 11.6 93 0.6 SW 15 17 8 9 1012.5 1012.5 12.2
22/02:30am 12.9 11.1 12.0 94 0.5 WSW 13 15 7 8 1012.8 1012.8 12.2
22/02:00am 12.8 11.4 12.1 95 0.4 WSW 11 15 6 8 1012.9 1012.9 12.2
22/01:30am 13.1 11.3 12.0 93 0.6 WSW 13 17 7 9 1013.3 1013.3 12.2
22/01:00am 13.7 12.4 12.4 92 0.7 WSW 11 13 6 7 1013.7 1013.7 12.2
22/12:30am 14.3 13.0 12.5 89 1.0 SSW 11 13 6 7 1014.0 1014.0 12.2
22/12:00am 14.7 13.4 12.5 87 1.2 SSW 11 15 6 8 1014.0 1014.0 12.2
 
Date/Time
EST
Temp
°C
App
Temp
°C
Dew
Point
°C
Rel
Hum
%
Delta-T
°C
Wind Press
QNH
hPa
Press
MSL
hPa
Rain since
9am
mm
Dir  Spd
km/h
Gust
km/h
Spd
kts
Gust
kts
21/11:30pm 14.7 13.2 13.1 90 0.9 SW 13 15 7 8 1014.3 1014.3 12.2
21/11:00pm 15.1 13.2 13.1 88 1.1 SSW 15 20 8 11 1014.4 1014.4 12.2
21/10:30pm 15.1 14.1 13.3 89 1.0 SSW 11 15 6 8 1014.7 1014.7 12.2
21/10:00pm 15.6 13.4 13.3 86 1.3 SSW 17 24 9 13 1014.5 1014.5 12.2
21/09:30pm 15.6 13.6 13.8 89 1.0 SSW 17 22 9 12 1015.1 1015.1 12.2
21/09:00pm 15.6 13.9 13.6 88 1.1 SSW 15 20 8 11 1015.0 1015.0 12.2
21/08:30pm 15.7 14.2 14.1 90 0.9 SW 15 17 8 9 1015.4 1015.4 12.2
21/08:00pm 15.7 13.9 14.5 93 0.7 SW 17 26 9 14 1015.1 1015.1 12.2
21/07:30pm 15.8 14.9 14.8 94 0.6 SW 13 17 7 9 1015.3 1015.3 12.0
21/07:00pm 16.0 14.8 15.0 94 0.6 SW 15 22 8 12 1015.0 1015.0 11.8
21/06:30pm 16.2 15.4 15.2 94 0.6 SSW 13 26 7 14 1015.2 1015.2 11.8
21/06:00pm 16.3 15.7 14.7 90 0.9 SSE 11 15 6 8 1014.0 1014.0 11.4
21/05:30pm 16.2 16.2 15.3 94 0.5 SSW 9 11 5 6 1014.0 1014.0 11.4
21/05:00pm 16.2 15.8 15.3 94 0.5 SSW 11 15 6 8 1014.0 1014.0 11.0
21/04:30pm 16.4 15.3 15.4 94 0.6 SSW 15 19 8 10 1014.0 1014.0 10.4
21/04:00pm 16.5 14.6 15.8 96 0.4 SSW 20 26 11 14 1014.1 1014.1 10.2
21/03:30pm 16.7 15.5 16.0 96 0.4 SSW 17 20 9 11 1014.1 1014.1 9.6
21/03:00pm 16.8 15.1 15.8 94 0.6 SSW 19 26 10 14 1014.1 1014.1 8.2
21/02:30pm 17.0 15.5 16.2 95 0.5 SSW 19 30 10 16 1014.1 1014.1 7.8
21/02:16pm 16.9 16.0 15.9 94 0.6 S 15 28 8 15 1014.1 1014.1 7.6
21/02:00pm 17.3 16.3 16.5 95 0.5 SSW 17 20 9 11 1014.2 1014.2 6.6
21/01:45pm 17.6 18.2 16.8 95 0.5 SE 9 13 5 7 1014.1 1014.1 4.8
21/01:30pm 17.7 18.7 16.4 92 0.8 SE 6 7 3 4 1014.3 1014.3 4.2
21/01:00pm 17.8 18.4 16.8 94 0.6 SSE 9 15 5 8 1014.6 1014.6 3.6
21/12:42pm 18.2 17.9 16.5 90 1.0 SE 13 20 7 11 1014.7 1014.7 3.2
21/12:30pm 18.4 18.8 16.4 88 1.2 SE 9 13 5 7 1014.7 1014.7 3.2
21/12:00pm 18.3 17.9 16.3 88 1.2 SSE 13 20 7 11 1014.9 1014.9 3.0
21/11:42am 18.3 19.0 17.0 92 0.8 SE 9 17 5 9 1015.2 1015.2 3.0
21/11:30am 18.2 18.5 17.0 93 0.7 SE 11 17 6 9 1015.3 1015.3 2.8
21/11:21am 18.1 18.4 17.1 94 0.6 SE 11 15 6 8 1015.4 1015.4 2.8
21/11:00am 18.0 17.9 17.0 94 0.6 SE 13 22 7 12 1015.7 1015.7 2.6
21/10:35am 18.5 18.7 16.8 90 1.0 SE 11 17 6 9 1016.2 1016.2 1.8
21/10:30am 18.7 19.3 16.9 89 1.1 SSE 9 17 5 9 1016.2 1016.2 1.2
21/10:00am 19.0 20.7 18.0 94 0.6 S 6 9 3 5 1016.2 1016.2 0.8
21/09:30am 18.8 19.8 17.8 94 0.6 SSE 9 13 5 7 1016.1 1016.1 0.6
21/09:00am 18.7 19.6 17.6 93 0.7 SSE 9 13 5 7 1016.0 1016.0 3.0
21/08:30am 18.7 19.9 17.4 92 0.8 SE 7 11 4 6 1016.1 1016.1 1.6
21/08:00am 18.7 19.8 17.2 91 0.9 SSE 7 9 4 5 1016.0 1016.0 1.0
21/07:30am 19.1 21.6 17.3 89 1.1 CALM 0 0 0 0 1015.7 1015.7 0.6
21/07:00am 19.2 19.0 15.8 81 2.0 WSW 11 13 6 7 1015.8 1015.8 0.0
21/06:30am 19.6 19.1 15.0 75 2.7 W 11 15 6 8 1015.7 1015.7 0.0
21/06:00am 19.1 18.8 15.4 79 2.2 W 11 13 6 7 1015.5 1015.5 0.0
21/05:30am 19.1 18.6 14.8 76 2.5 WNW 11 15 6 8 1015.2 1015.2 0.0
21/05:00am 18.3 18.9 15.8 85 1.5 NW 7 13 4 7 1014.9 1014.9 0.0
21/04:30am 17.9 19.4 15.7 87 1.3 N 2 7 1 4 1014.6 1014.6 0.0
21/04:00am 18.5 19.5 15.3 81 1.9 W 4 7 2 4 1014.7 1014.7 0.0
21/03:30am 18.6 18.7 15.4 81 1.9 WNW 9 13 5 7 1014.9 1014.9 0.0
21/03:00am 18.3 19.1 15.9 86 1.4 W 6 7 3 4 1014.5 1014.5 0.0
21/02:30am 18.9 19.0 15.5 80 2.0 WNW 9 11 5 6 1014.8 1014.8 0.0
21/02:00am 19.3 18.8 15.8 80 2.1 NNW 13 15 7 8 1014.9 1014.9 0.0
21/01:30am 18.8 18.6 15.8 83 1.8 N 11 17 6 9 1015.3 1015.3 0.0
21/01:00am 19.0 19.7 16.0 83 1.8 NNW 7 11 4 6 1015.7 1015.7 0.0
21/12:30am 19.1 19.0 15.9 82 1.9 NW 11 15 6 8 1016.3 1016.3 0.0
21/12:00am 19.3 18.9 16.3 83 1.8 NNW 13 15 7 8 1016.5 1016.5 0.0
 
Date/Time
EST
Temp
°C
App
Temp
°C
Dew
Point
°C
Rel
Hum
%
Delta-T
°C
Wind Press
QNH
hPa
Press
MSL
hPa
Rain since
9am
mm
Dir  Spd
km/h
Gust
km/h
Spd
kts
Gust
kts
20/11:30pm 19.3 18.9 16.3 83 1.8 NNW 13 17 7 9 1016.8 1016.8 0.0
20/11:00pm 19.2 19.7 16.5 84 1.6 NW 9 13 5 7 1017.0 1017.0 0.0
20/10:30pm 19.9 20.2 17.1 84 1.7 NNW 11 13 6 7 1017.3 1017.3 0.0
20/10:00pm 20.4 19.8 17.5 83 1.8 N 17 24 9 13 1017.5 1017.5 0.0
20/09:30pm 20.9 19.5 17.0 78 2.4 N 20 33 11 18 1017.5 1017.5 0.0
20/09:00pm 20.6 19.7 16.8 79 2.3 N 17 24 9 13 1017.7 1017.7 0.0
20/08:30pm 20.9 19.4 16.2 74 2.8 N 19 26 10 14 1017.7 1017.7 0.0
20/08:00pm 20.9 19.3 16.1 74 2.9 N 19 28 10 15 1017.6 1017.6 0.0

Other Formats:

Comma delimited format used in spreadsheet applications
http://www.bom.gov.au/fwo/IDQ60801/IDQ60801.94578.axf

JavaScript Object Notation format (JSON) in row-major order
http://www.bom.gov.au/fwo/IDQ60801/IDQ60801.94578.json